K5SM

Sunlight Airport

Sunlight Mountain, Colorado, USA
METAR K5SM 231412Z AUTO 20010G15KT 160V230 5SM -SN SCT002 SCT021 SCT030 M15/M17 A2987 RMK AO2
Observed Flight Rules
Feb-23 @ 14:12 UTC (28 minutes ago) Marginal Visual Flight Rules
Wind Visibility Clouds Conditions
200° at 10 knots
 Gusting to 15 knots
5 miles
  • Scattered at 200' AGL
  • Scattered at 2,100' AGL
  • Scattered at 3,000' AGL
  • Light Snow
Temperatures Readings
Current -15°C / 5°F
Dewpoint -17°C / 1°F
Humidity 85%
Altimeter 29.87" Hg
Pressure 1012 hPa
Elevation 3232
METAR K5SM 231412Z AUTO 20010G15KT 160V230 5SM -SN SCT002 SCT021 SCT030 M15/M17 A2987 RMK AO2
Observed Flight Rules
Feb-23 @ 14:12 UTC
(28 minutes ago)
MVFR
Wind Visibility
200° at 10 knots
 Gusting to 15 knots
5 miles
Clouds
  • Scattered at 200' AGL
  • Scattered at 2,100' AGL
  • Scattered at 3,000' AGL
Conditions
  • Light Snow
Temperature Dewpoint
-15°C / 5°F -17°C / 1°F
Humidity Altimeter Pressure
85% 29.87" Hg 1012 hPa